Time;durP1;ratioP1;P1;durP2;ratioP2;P2;SDS_P1;SDS_P2;PMS_P1;PMS_P2;Temp;Humidity;BMP_temperature;BMP_pressure;BME280_temperature;BME280_humidity;BME280_pressure;Samples;Min_cycle;Max_cycle;Signal;HPM_P1;HPM_P2
2023/05/30 00:02:24;;;;;;;8.80;2.47;;;;;;;;;;5057650;28;20044;-67
2023/05/30 00:04:51;;;;;;;8.73;2.70;;;;;;;;;;5057616;28;20503;-67
2023/05/30 00:07:18;;;;;;;7.05;2.38;;;;;;;;;;5057516;28;20053;-67
2023/05/30 00:09:44;;;;;;;10.60;2.55;;;;;;;;;;5057788;28;20098;-67
2023/05/30 00:12:11;;;;;;;8.43;2.50;;;;;;;;;;5057448;28;20111;-67
2023/05/30 00:14:37;;;;;;;9.57;2.05;;;;;;;;;;5048236;28;20056;-67
2023/05/30 00:17:05;;;;;;;10.52;2.50;;;;;;;;;;5034066;28;20054;-67
2023/05/30 00:19:31;;;;;;;8.75;2.50;;;;;;;;;;5051933;28;20366;-67
2023/05/30 00:21:58;;;;;;;8.57;2.10;;;;;;;;;;5054014;28;20045;-67
2023/05/30 00:24:25;;;;;;;10.48;2.33;;;;;;;;;;5053883;28;20045;-67
2023/05/30 00:26:52;;;;;;;12.93;2.97;;;;;;;;;;5054674;28;20052;-67
2023/05/30 00:29:18;;;;;;;11.85;2.88;;;;;;;;;;5052929;28;20049;-67
2023/05/30 00:31:45;;;;;;;9.20;2.33;;;;;;;;;;5054376;28;20045;-67
2023/05/30 00:34:11;;;;;;;10.70;2.40;;;;;;;;;;5054317;28;20052;-67
2023/05/30 00:36:38;;;;;;;9.32;2.60;;;;;;;;;;5053927;28;20493;-67
2023/05/30 00:39:04;;;;;;;10.18;2.10;;;;;;;;;;5054179;28;20095;-67
2023/05/30 00:41:31;;;;;;;10.00;2.30;;;;;;;;;;5054087;28;20044;-67
2023/05/30 00:43:57;;;;;;;12.30;2.85;;;;;;;;;;5053861;28;20558;-67
2023/05/30 00:46:29;;;;;;;6.40;2.13;;;;;;;;;;5054030;28;20053;-67
2023/05/30 00:48:56;;;;;;;11.52;2.55;;;;;;;;;;5053891;28;20099;-67
2023/05/30 00:51:26;;;;;;;12.70;3.05;;;;;;;;;;5054195;28;20048;-67
2023/05/30 00:53:52;;;;;;;9.57;2.50;;;;;;;;;;5054080;28;20132;-67
2023/05/30 00:56:19;;;;;;;10.70;2.60;;;;;;;;;;5053622;28;20497;-68
2023/05/30 00:58:46;;;;;;;9.02;2.55;;;;;;;;;;5053376;28;20091;-67
2023/05/30 01:01:13;;;;;;;11.07;2.97;;;;;;;;;;5053472;28;20092;-67
2023/05/30 01:03:40;;;;;;;11.18;2.50;;;;;;;;;;5053458;28;20118;-67
2023/05/30 01:06:06;;;;;;;12.00;2.80;;;;;;;;;;5053669;28;20048;-67
2023/05/30 01:08:33;;;;;;;10.38;2.35;;;;;;;;;;5053714;28;20045;-67
2023/05/30 01:11:08;;;;;;;10.95;2.38;;;;;;;;;;5053340;28;20516;-67
2023/05/30 01:13:41;;;;;;;9.30;2.58;;;;;;;;;;5053517;28;20174;-67
2023/05/30 01:16:08;;;;;;;9.77;2.85;;;;;;;;;;5047622;28;20102;-67
2023/05/30 01:18:39;;;;;;;10.63;2.33;;;;;;;;;;5053312;28;20080;-67
2023/05/30 01:21:10;;;;;;;8.15;2.58;;;;;;;;;;5053302;28;20053;-67
2023/05/30 01:23:52;;;;;;;13.95;2.85;;;;;;;;;;5053307;28;20042;-67
2023/05/30 01:26:37;;;;;;;9.98;2.63;;;;;;;;;;5053060;28;20051;-67
2023/05/30 01:29:06;;;;;;;8.85;2.90;;;;;;;;;;5052387;28;20554;-67
2023/05/30 01:31:32;;;;;;;11.90;2.67;;;;;;;;;;5052595;28;20060;-67
2023/05/30 01:34:00;;;;;;;8.20;2.30;;;;;;;;;;5053127;28;20049;-67
2023/05/30 01:36:27;;;;;;;;;;;;;;;;;;5053557;28;20050;-67
2023/05/30 01:38:53;;;;;;;13.75;2.78;;;;;;;;;;5051832;28;19968;-67
2023/05/30 01:41:33;;;;;;;10.25;2.55;;;;;;;;;;5052789;28;20045;-67
2023/05/30 01:44:03;;;;;;;10.32;2.78;;;;;;;;;;5053078;28;20095;-67
2023/05/30 01:46:32;;;;;;;10.15;2.88;;;;;;;;;;5052929;28;20439;-67
2023/05/30 01:49:11;;;;;;;7.35;2.30;;;;;;;;;;5052971;28;20049;-67
2023/05/30 01:51:44;;;;;;;11.43;2.72;;;;;;;;;;5053082;28;20053;-67
2023/05/30 01:54:12;;;;;;;14.32;3.10;;;;;;;;;;5052545;28;20523;-67
2023/05/30 01:56:39;;;;;;;10.27;2.35;;;;;;;;;;5052486;28;20053;-67
2023/05/30 01:59:07;;;;;;;14.73;2.67;;;;;;;;;;5052320;28;20083;-67
2023/05/30 02:01:34;;;;;;;10.52;2.78;;;;;;;;;;5052871;28;20056;-67
2023/05/30 02:04:00;;;;;;;11.38;3.15;;;;;;;;;;5052384;28;20449;-67
2023/05/30 02:06:27;;;;;;;8.85;2.88;;;;;;;;;;5051786;28;20103;-67
2023/05/30 02:08:53;;;;;;;14.07;3.20;;;;;;;;;;5052317;28;20067;-67
2023/05/30 02:11:20;;;;;;;8.75;2.35;;;;;;;;;;5052540;28;20083;-67
2023/05/30 02:13:46;;;;;;;12.27;2.85;;;;;;;;;;5052442;28;20052;-67
2023/05/30 02:16:13;;;;;;;12.02;2.72;;;;;;;;;;5052148;28;20053;-67
2023/05/30 02:18:41;;;;;;;9.45;2.55;;;;;;;;;;5052028;28;20171;-67
2023/05/30 02:21:10;;;;;;;8.85;2.90;;;;;;;;;;5052015;28;20416;-67
2023/05/30 02:23:37;;;;;;;11.82;2.85;;;;;;;;;;5051920;28;20056;-67
2023/05/30 02:26:03;;;;;;;11.95;3.05;;;;;;;;;;5052240;28;20080;-67
2023/05/30 02:28:30;;;;;;;10.55;2.78;;;;;;;;;;5052335;28;20049;-67
2023/05/30 02:30:56;;;;;;;10.23;2.53;;;;;;;;;;5051970;28;20087;-67
2023/05/30 02:33:23;;;;;;;8.88;2.55;;;;;;;;;;5051913;28;20484;-67
2023/05/30 02:35:49;;;;;;;11.65;2.70;;;;;;;;;;5052010;28;20102;-67
2023/05/30 02:38:16;;;;;;;11.38;2.75;;;;;;;;;;5052015;28;20044;-67
2023/05/30 02:40:42;;;;;;;11.98;3.03;;;;;;;;;;5051249;28;20554;-67
2023/05/30 02:43:08;;;;;;;13.48;2.92;;;;;;;;;;5051933;28;20091;-67
2023/05/30 02:45:46;;;;;;;9.25;2.70;;;;;;;;;;5051708;28;20133;-67
2023/05/30 02:48:12;;;;;;;10.80;2.80;;;;;;;;;;5051617;28;20041;-67
2023/05/30 02:50:39;;;;;;;13.13;3.03;;;;;;;;;;5051844;28;20049;-67
2023/05/30 02:53:05;;;;;;;12.98;3.50;;;;;;;;;;5051834;28;20106;-67
2023/05/30 02:55:32;;;;;;;10.23;3.10;;;;;;;;;;5051836;28;20045;-67
2023/05/30 02:57:58;;;;;;;12.98;2.85;;;;;;;;;;5051881;28;20489;-67
2023/05/30 03:00:25;;;;;;;15.07;3.20;;;;;;;;;;5051366;28;20122;-67
2023/05/30 03:02:51;;;;;;;14.27;3.00;;;;;;;;;;5051810;28;20041;-67
2023/05/30 03:05:18;;;;;;;11.15;3.28;;;;;;;;;;5051626;28;20384;-67
2023/05/30 03:07:45;;;;;;;12.45;2.90;;;;;;;;;;5051745;28;20586;-67
2023/05/30 03:10:11;;;;;;;10.80;3.20;;;;;;;;;;5051827;28;20045;-67
2023/05/30 03:12:38;;;;;;;12.35;2.90;;;;;;;;;;5051394;28;20075;-67
2023/05/30 03:15:05;;;;;;;12.20;3.67;;;;;;;;;;5051821;28;20053;-67
2023/05/30 03:17:32;;;;;;;14.07;2.67;;;;;;;;;;5051258;28;20538;-67
2023/05/30 03:19:58;;;;;;;11.10;3.13;;;;;;;;;;5051551;28;20053;-67
2023/05/30 03:22:25;;;;;;;10.60;2.90;;;;;;;;;;5051240;28;20278;-67
2023/05/30 03:24:51;;;;;;;8.65;2.58;;;;;;;;;;5051654;28;20546;-67
2023/05/30 03:27:18;;;;;;;10.35;3.15;;;;;;;;;;5051394;28;20102;-67
2023/05/30 03:29:45;;;;;;;9.63;3.08;;;;;;;;;;5051328;28;20300;-67
2023/05/30 03:32:11;;;;;;;8.30;2.93;;;;;;;;;;5040911;28;20049;-67
2023/05/30 03:34:38;;;;;;;8.48;2.95;;;;;;;;;;5048125;28;20052;-67
2023/05/30 03:37:04;;;;;;;13.73;3.60;;;;;;;;;;5051499;28;20848;-67
2023/05/30 03:39:31;;;;;;;13.35;3.20;;;;;;;;;;5051233;28;20126;-67
2023/05/30 03:41:57;;;;;;;15.57;3.47;;;;;;;;;;5051455;28;20081;-67
2023/05/30 03:44:23;;;;;;;12.32;2.90;;;;;;;;;;5051088;28;20489;-67
2023/05/30 03:46:50;;;;;;;15.05;3.45;;;;;;;;;;5051225;28;20378;-67
2023/05/30 03:49:16;;;;;;;9.98;3.20;;;;;;;;;;5051107;28;20049;-67
2023/05/30 03:51:43;;;;;;;12.20;3.17;;;;;;;;;;5050968;28;20048;-67
2023/05/30 03:54:09;;;;;;;12.85;3.55;;;;;;;;;;5053828;28;20053;-67
2023/05/30 03:56:35;;;;;;;11.63;3.00;;;;;;;;;;5054800;28;20041;-67
2023/05/30 03:59:02;;;;;;;13.50;3.15;;;;;;;;;;5054517;28;20041;-67
2023/05/30 04:01:30;;;;;;;14.38;3.53;;;;;;;;;;5055206;28;20049;-67
2023/05/30 04:03:57;;;;;;;12.45;3.55;;;;;;;;;;5054821;28;20468;-67
2023/05/30 04:06:24;;;;;;;7.90;2.83;;;;;;;;;;5054702;28;20056;-67
2023/05/30 04:08:51;;;;;;;11.23;3.20;;;;;;;;;;5054577;28;20045;-67
2023/05/30 04:11:17;;;;;;;12.52;3.45;;;;;;;;;;5054480;28;20053;-67
2023/05/30 04:13:44;;;;;;;13.50;3.42;;;;;;;;;;5054759;28;20087;-67
2023/05/30 04:16:10;;;;;;;9.73;3.10;;;;;;;;;;5054721;28;20049;-67
2023/05/30 04:18:43;;;;;;;9.73;3.10;;;;;;;;;;5054667;28;20076;-67
2023/05/30 04:21:12;;;;;;;10.85;3.40;;;;;;;;;;5054483;28;20137;-67
2023/05/30 04:23:40;;;;;;;11.50;3.35;;;;;;;;;;5054326;28;20098;-67
2023/05/30 04:26:08;;;;;;;11.95;3.83;;;;;;;;;;5054176;28;20094;-67
2023/05/30 04:28:36;;;;;;;13.55;3.70;;;;;;;;;;5054551;28;20060;-67
2023/05/30 04:31:05;;;;;;;;;;;;;;;;;;5055078;28;20049;-67
2023/05/30 04:33:48;;;;;;;13.10;3.88;;;;;;;;;;5054287;28;19928;-67
2023/05/30 04:36:18;;;;;;;10.57;3.13;;;;;;;;;;5054054;28;20061;-67
2023/05/30 04:38:49;;;;;;;11.32;3.33;;;;;;;;;;5054271;28;20223;-67
2023/05/30 04:41:18;;;;;;;11.30;3.17;;;;;;;;;;5053900;28;20641;-67
2023/05/30 04:43:52;;;;;;;12.18;3.65;;;;;;;;;;5053941;28;20496;-68
2023/05/30 04:46:21;;;;;;;10.90;3.40;;;;;;;;;;5053968;28;20079;-67
2023/05/30 04:48:53;;;;;;;11.98;3.45;;;;;;;;;;5053835;28;20072;-67
2023/05/30 04:51:20;;;;;;;13.15;3.70;;;;;;;;;;5053854;28;20052;-67
2023/05/30 04:53:47;;;;;;;11.18;3.88;;;;;;;;;;5054006;28;20079;-67
2023/05/30 04:56:13;;;;;;;9.80;3.40;;;;;;;;;;5053776;28;20056;-67
2023/05/30 04:58:40;;;;;;;10.63;3.63;;;;;;;;;;5053674;28;20328;-67
2023/05/30 05:01:09;;;;;;;11.80;3.70;;;;;;;;;;5053471;28;20523;-67
2023/05/30 05:03:38;;;;;;;13.20;4.03;;;;;;;;;;5053186;28;20072;-67
2023/05/30 05:06:06;;;;;;;14.20;3.22;;;;;;;;;;5053718;28;20052;-67
2023/05/30 05:08:33;;;;;;;10.73;3.47;;;;;;;;;;5053477;28;20048;-67
2023/05/30 05:11:04;;;;;;;11.93;3.90;;;;;;;;;;5053436;28;20060;-67
2023/05/30 05:13:31;;;;;;;12.32;3.67;;;;;;;;;;5053244;28;20053;-67
2023/05/30 05:15:57;;;;;;;12.30;3.63;;;;;;;;;;5053927;28;20076;-67
2023/05/30 05:18:24;;;;;;;11.48;3.50;;;;;;;;;;5053721;28;20522;-67
2023/05/30 05:20:50;;;;;;;8.55;3.22;;;;;;;;;;5053050;28;20480;-67
2023/05/30 05:23:17;;;;;;;12.25;3.50;;;;;;;;;;5049376;28;20045;-67
2023/05/30 05:25:43;;;;;;;12.02;4.07;;;;;;;;;;5042956;28;20068;-67
2023/05/30 05:28:10;;;;;;;12.45;3.45;;;;;;;;;;5053338;28;20052;-67
2023/05/30 05:30:37;;;;;;;11.93;3.40;;;;;;;;;;5040121;28;20053;-67
2023/05/30 05:33:03;;;;;;;14.48;3.92;;;;;;;;;;5051157;28;20052;-67
2023/05/30 05:35:32;;;;;;;12.50;3.47;;;;;;;;;;5035784;28;20113;-68
2023/05/30 05:37:59;;;;;;;11.33;3.53;;;;;;;;;;5032586;28;20103;-67
2023/05/30 05:40:25;;;;;;;10.57;3.30;;;;;;;;;;5043115;28;20091;-67
2023/05/30 05:42:52;;;;;;;12.38;3.42;;;;;;;;;;5042950;28;20477;-67
2023/05/30 05:45:18;;;;;;;14.43;3.60;;;;;;;;;;5034238;28;20068;-68
2023/05/30 05:47:45;;;;;;;10.00;3.38;;;;;;;;;;5032972;28;20122;-69
2023/05/30 05:50:11;;;;;;;11.88;3.15;;;;;;;;;;5032449;28;20057;-70
2023/05/30 05:52:38;;;;;;;13.55;3.50;;;;;;;;;;5032441;28;20045;-69
2023/05/30 05:55:04;;;;;;;12.15;4.10;;;;;;;;;;5032997;28;20053;-68
2023/05/30 05:57:31;;;;;;;11.40;3.60;;;;;;;;;;5032418;28;20049;-69
2023/05/30 05:59:57;;;;;;;10.15;3.70;;;;;;;;;;5031965;28;20053;-69
2023/05/30 06:02:24;;;;;;;14.23;3.72;;;;;;;;;;5032538;28;20053;-69
2023/05/30 06:04:51;;;;;;;11.02;3.72;;;;;;;;;;5032745;28;20041;-68
2023/05/30 06:07:18;;;;;;;9.98;3.53;;;;;;;;;;5032292;28;20045;-68
2023/05/30 06:09:44;;;;;;;9.75;3.70;;;;;;;;;;5032604;28;20099;-69
2023/05/30 06:12:11;;;;;;;10.63;3.50;;;;;;;;;;5032111;28;20057;-67
2023/05/30 06:14:37;;;;;;;9.55;3.35;;;;;;;;;;5032380;28;20054;-67
2023/05/30 06:17:04;;;;;;;11.65;3.33;;;;;;;;;;5031595;28;20099;-67
2023/05/30 06:19:30;;;;;;;12.13;3.50;;;;;;;;;;5045515;28;20045;-67
2023/05/30 06:21:57;;;;;;;13.68;3.63;;;;;;;;;;5052106;28;20081;-66
2023/05/30 06:24:23;;;;;;;11.40;3.90;;;;;;;;;;5051950;28;20053;-66
2023/05/30 06:26:50;;;;;;;8.75;3.47;;;;;;;;;;5052562;28;20045;-66
2023/05/30 06:29:16;;;;;;;8.98;3.30;;;;;;;;;;5051951;28;20091;-66
2023/05/30 06:31:42;;;;;;;13.05;4.53;;;;;;;;;;5039187;28;20071;-66
2023/05/30 06:34:09;;;;;;;10.80;3.63;;;;;;;;;;5051829;28;20087;-67
2023/05/30 06:36:36;;;;;;;14.02;4.53;;;;;;;;;;5051823;28;20504;-67
2023/05/30 06:39:02;;;;;;;13.43;3.60;;;;;;;;;;5043096;28;20394;-68
2023/05/30 06:41:29;;;;;;;10.85;3.83;;;;;;;;;;5045990;28;20044;-68
2023/05/30 06:43:55;;;;;;;13.10;3.83;;;;;;;;;;5048033;28;20050;-68
2023/05/30 06:46:21;;;;;;;12.95;3.53;;;;;;;;;;5032083;28;20076;-67
2023/05/30 06:48:48;;;;;;;12.10;3.92;;;;;;;;;;5032352;28;20050;-67
2023/05/30 06:51:14;;;;;;;10.50;3.85;;;;;;;;;;5031807;28;20551;-67
2023/05/30 06:53:41;;;;;;;9.77;3.78;;;;;;;;;;5031697;28;20048;-67
2023/05/30 06:56:07;;;;;;;10.05;3.50;;;;;;;;;;5031916;28;20053;-67
2023/05/30 06:58:34;;;;;;;9.98;3.92;;;;;;;;;;5032253;28;20386;-67
2023/05/30 07:01:00;;;;;;;12.70;3.70;;;;;;;;;;5031460;28;20057;-67
2023/05/30 07:03:27;;;;;;;8.15;3.22;;;;;;;;;;5031871;28;20041;-67
2023/05/30 07:05:53;;;;;;;13.10;3.70;;;;;;;;;;5032229;28;20455;-67
2023/05/30 07:08:20;;;;;;;10.45;3.55;;;;;;;;;;5033120;28;20084;-67
2023/05/30 07:10:46;;;;;;;11.32;4.22;;;;;;;;;;5051363;28;20057;-67
2023/05/30 07:13:12;;;;;;;8.55;3.45;;;;;;;;;;5051718;28;20057;-67
2023/05/30 07:15:39;;;;;;;6.85;2.78;;;;;;;;;;5051595;28;20447;-67
2023/05/30 07:18:05;;;;;;;10.18;3.10;;;;;;;;;;5039705;28;20096;-67
2023/05/30 07:20:32;;;;;;;14.30;3.97;;;;;;;;;;5044005;28;20136;-67
2023/05/30 07:22:59;;;;;;;8.35;3.38;;;;;;;;;;5051062;28;20132;-67
2023/05/30 07:25:25;;;;;;;12.10;3.78;;;;;;;;;;5050744;28;20484;-67
2023/05/30 07:27:52;;;;;;;11.02;3.50;;;;;;;;;;5052941;28;20053;-67
2023/05/30 07:30:18;;;;;;;9.13;3.47;;;;;;;;;;5055114;28;20053;-68
2023/05/30 07:32:45;;;;;;;12.32;3.70;;;;;;;;;;5054920;28;20459;-63
2023/05/30 07:35:11;;;;;;;10.93;3.85;;;;;;;;;;5055298;28;20464;-68
2023/05/30 07:37:38;;;;;;;10.63;3.40;;;;;;;;;;5054962;28;20048;-70
2023/05/30 07:40:05;;;;;;;8.13;3.08;;;;;;;;;;5054255;28;20049;-69
2023/05/30 07:42:32;;;;;;;16.40;3.88;;;;;;;;;;5033999;28;20500;-69
2023/05/30 07:44:58;;;;;;;12.68;3.45;;;;;;;;;;5034540;28;20045;-69
2023/05/30 07:47:25;;;;;;;12.45;3.63;;;;;;;;;;5030189;28;20489;-69
2023/05/30 07:49:51;;;;;;;10.52;3.20;;;;;;;;;;5031672;28;20041;-67
2023/05/30 07:52:17;;;;;;;12.38;3.25;;;;;;;;;;5035217;28;20412;-69
2023/05/30 07:54:44;;;;;;;12.13;3.92;;;;;;;;;;5034445;28;20509;-67
2023/05/30 07:57:13;;;;;;;9.60;3.15;;;;;;;;;;5033659;28;20057;-69
2023/05/30 07:59:42;;;;;;;9.57;3.15;;;;;;;;;;5032901;28;20087;-68
2023/05/30 08:02:09;;;;;;;8.35;3.20;;;;;;;;;;5033962;28;20080;-68
2023/05/30 08:04:36;;;;;;;9.45;3.10;;;;;;;;;;5034718;28;20053;-69
2023/05/30 08:07:03;;;;;;;8.57;3.35;;;;;;;;;;5034793;28;20409;-69
2023/05/30 08:09:30;;;;;;;7.80;3.45;;;;;;;;;;5034374;28;20049;-68
2023/05/30 08:11:57;;;;;;;5.45;2.75;;;;;;;;;;5034577;28;20057;-68
2023/05/30 08:14:24;;;;;;;;;;;;;;;;;;5034557;28;20080;-68
2023/05/30 08:16:50;;;;;;;7.93;2.90;;;;;;;;;;5034488;28;19944;-68
2023/05/30 08:19:17;;;;;;;9.27;3.20;;;;;;;;;;5034399;28;20088;-68
2023/05/30 08:21:43;;;;;;;7.50;3.13;;;;;;;;;;5034088;28;20088;-68
2023/05/30 08:24:12;;;;;;;7.70;3.15;;;;;;;;;;5048987;28;20057;-68
2023/05/30 08:26:39;;;;;;;8.98;3.72;;;;;;;;;;5039802;28;20037;-68
2023/05/30 08:29:06;;;;;;;5.93;3.00;;;;;;;;;;5051202;28;20050;-69
2023/05/30 08:31:32;;;;;;;6.00;2.72;;;;;;;;;;5044623;28;20068;-68
2023/05/30 08:34:02;;;;;;;10.10;3.28;;;;;;;;;;5034448;28;20482;-69
2023/05/30 08:36:29;;;;;;;10.02;3.22;;;;;;;;;;5034431;28;20132;-68
2023/05/30 08:38:56;;;;;;;12.77;3.00;;;;;;;;;;5033921;28;20107;-68
2023/05/30 08:41:39;;;;;;;5.95;2.50;;;;;;;;;;5039845;28;20132;-68
2023/05/30 08:44:06;;;;;;;9.68;3.47;;;;;;;;;;5053817;28;20053;-69
2023/05/30 08:46:33;;;;;;;5.38;3.05;;;;;;;;;;5053194;28;20479;-69
2023/05/30 08:49:00;;;;;;;6.35;2.47;;;;;;;;;;5053412;28;20048;-71
2023/05/30 08:51:28;;;;;;;9.98;3.50;;;;;;;;;;5033761;28;20049;-69
2023/05/30 08:53:56;;;;;;;8.25;3.30;;;;;;;;;;5050923;28;20197;-69
2023/05/30 08:56:31;;;;;;;8.85;3.28;;;;;;;;;;5053918;28;20056;-70
2023/05/30 08:59:00;;;;;;;4.70;2.65;;;;;;;;;;5054067;28;20044;-69
2023/05/30 09:01:27;;;;;;;8.73;3.05;;;;;;;;;;5053847;28;20558;-68
2023/05/30 09:03:54;;;;;;;9.00;5.13;;;;;;;;;;5053543;28;20048;-69
2023/05/30 09:06:21;;;;;;;;;;;;;;;;;;5053868;28;20045;-67
2023/05/30 09:08:47;;;;;;;5.93;2.53;;;;;;;;;;5053591;28;19966;-68
2023/05/30 09:11:14;;;;;;;5.57;2.65;;;;;;;;;;5053532;28;20044;-69
2023/05/30 09:13:41;;;;;;;7.53;2.73;;;;;;;;;;5047357;28;20049;-68
2023/05/30 09:16:08;;;;;;;6.28;2.70;;;;;;;;;;5033798;28;20054;-68
2023/05/30 09:18:35;;;;;;;7.65;3.25;;;;;;;;;;5036502;28;20051;-67
2023/05/30 09:21:01;;;;;;;6.07;2.78;;;;;;;;;;5053611;28;20045;-67
2023/05/30 09:23:29;;;;;;;7.10;2.78;;;;;;;;;;5053537;28;20056;-67
2023/05/30 09:25:55;;;;;;;;;;;;;;;;;;5034343;28;20401;-67
2023/05/30 09:28:25;;;;;;;11.67;2.97;;;;;;;;;;5033168;28;19921;-67
2023/05/30 09:30:52;;;;;;;7.75;3.13;;;;;;;;;;5033466;28;20106;-68
2023/05/30 09:33:19;;;;;;;9.05;3.22;;;;;;;;;;5033306;28;20057;-67
2023/05/30 09:35:49;;;;;;;9.05;2.92;;;;;;;;;;5039091;28;20046;-67
2023/05/30 09:38:17;;;;;;;6.53;2.72;;;;;;;;;;5047927;28;20077;-67
2023/05/30 09:40:44;;;;;;;7.30;2.75;;;;;;;;;;5052901;28;20159;-68
2023/05/30 09:43:10;;;;;;;7.17;3.00;;;;;;;;;;5037085;28;20492;-66
2023/05/30 09:45:37;;;;;;;6.28;2.83;;;;;;;;;;5043738;28;20076;-67
2023/05/30 09:48:03;;;;;;;7.93;3.25;;;;;;;;;;5030216;28;20104;-68
2023/05/30 09:50:30;;;;;;;8.35;2.85;;;;;;;;;;5031028;28;20072;-67
2023/05/30 09:52:59;;;;;;;8.03;2.80;;;;;;;;;;5031536;28;20060;-67
2023/05/30 09:55:26;;;;;;;6.85;2.60;;;;;;;;;;5032389;28;20049;-68
2023/05/30 09:57:53;;;;;;;7.03;3.20;;;;;;;;;;5032821;28;20068;-67
2023/05/30 10:00:25;;;;;;;7.40;3.33;;;;;;;;;;5032552;28;20053;-67
2023/05/30 10:02:53;;;;;;;8.07;2.65;;;;;;;;;;5046865;28;20044;-67
2023/05/30 10:05:21;;;;;;;6.53;2.80;;;;;;;;;;5052633;28;20052;-67
2023/05/30 10:07:48;;;;;;;6.07;2.63;;;;;;;;;;5052337;28;20053;-68
2023/05/30 10:10:15;;;;;;;7.75;3.00;;;;;;;;;;5044478;28;20123;-68
2023/05/30 10:12:42;;;;;;;5.57;2.42;;;;;;;;;;5032464;28;20053;-68
2023/05/30 10:15:10;;;;;;;5.03;2.60;;;;;;;;;;5034267;28;20127;-68
2023/05/30 10:17:38;;;;;;;8.27;2.95;;;;;;;;;;5052354;28;20049;-68
2023/05/30 10:20:07;;;;;;;7.35;2.80;;;;;;;;;;5052425;28;20080;-67
2023/05/30 10:22:40;;;;;;;5.38;2.58;;;;;;;;;;5051871;28;20079;-67
2023/05/30 10:25:08;;;;;;;5.40;2.38;;;;;;;;;;5052178;28;20045;-67
2023/05/30 10:27:37;;;;;;;6.45;2.47;;;;;;;;;;5052141;28;20450;-67
2023/05/30 10:30:05;;;;;;;7.25;2.80;;;;;;;;;;5052338;28;20044;-67
2023/05/30 10:32:33;;;;;;;5.30;2.33;;;;;;;;;;5052205;28;20099;-67
2023/05/30 10:35:07;;;;;;;4.55;2.20;;;;;;;;;;5051821;28;20057;-67
2023/05/30 10:37:35;;;;;;;7.00;2.75;;;;;;;;;;5052183;28;20080;-68
2023/05/30 10:40:08;;;;;;;6.10;2.20;;;;;;;;;;5051802;28;20056;-67
2023/05/30 10:42:40;;;;;;;5.45;2.40;;;;;;;;;;5035988;28;20049;-67
2023/05/30 10:45:07;;;;;;;7.60;2.75;;;;;;;;;;5032143;28;20103;-67
2023/05/30 10:47:43;;;;;;;6.30;2.33;;;;;;;;;;5044982;28;20045;-67
2023/05/30 10:50:09;;;;;;;;;;;;;;;;;;5052235;28;20558;-67
2023/05/30 10:52:35;;;;;;;6.28;2.83;;;;;;;;;;5051845;28;19967;-67
2023/05/30 10:55:02;;;;;;;;;;;;;;;;;;5052142;28;20401;-67
2023/05/30 10:57:31;;;;;;;6.05;2.33;;;;;;;;;;5051489;28;19920;-67
2023/05/30 11:00:15;;;;;;;7.38;2.60;;;;;;;;;;5051285;28;20056;-67
2023/05/30 11:02:43;;;;;;;5.22;2.40;;;;;;;;;;5051485;28;20048;-67
2023/05/30 11:05:10;;;;;;;8.18;2.58;;;;;;;;;;5051993;28;20079;-67
2023/05/30 11:07:38;;;;;;;6.05;2.60;;;;;;;;;;5051473;28;20056;-66
2023/05/30 11:10:05;;;;;;;4.43;2.55;;;;;;;;;;5048424;28;20050;-66
2023/05/30 11:12:44;;;;;;;7.07;2.63;;;;;;;;;;5031816;28;20409;-66
2023/05/30 11:15:14;;;;;;;5.40;2.33;;;;;;;;;;5031371;28;20496;-67
2023/05/30 11:17:40;;;;;;;7.15;2.72;;;;;;;;;;5031556;28;20452;-66
2023/05/30 11:20:08;;;;;;;5.10;2.42;;;;;;;;;;5030111;28;20057;-68
2023/05/30 11:22:37;;;;;;;5.15;2.42;;;;;;;;;;5032448;28;20060;-67
2023/05/30 11:25:28;;;;;;;6.00;2.80;;;;;;;;;;5051277;28;20095;-68
2023/05/30 11:28:04;;;;;;;5.88;2.67;;;;;;;;;;5051970;28;20049;-67
2023/05/30 11:30:30;;;;;;;;;;;;;;;;;;5051656;28;20041;-68
2023/05/30 11:32:58;;;;;;;6.45;2.70;;;;;;;;;;5051092;28;19979;-68
2023/05/30 11:35:26;;;;;;;5.15;2.72;;;;;;;;;;5051440;28;20080;-67
2023/05/30 11:37:56;;;;;;;5.88;2.70;;;;;;;;;;5040185;28;20140;-68
2023/05/30 11:40:23;;;;;;;5.35;2.55;;;;;;;;;;5031054;28;20060;-66
2023/05/30 11:42:53;;;;;;;6.25;2.67;;;;;;;;;;5047663;28;20095;-68
2023/05/30 11:45:23;;;;;;;5.38;2.67;;;;;;;;;;5048666;28;20055;-66
2023/05/30 11:47:49;;;;;;;4.93;2.78;;;;;;;;;;5040235;28;20099;-67
2023/05/30 11:50:17;;;;;;;7.55;2.80;;;;;;;;;;5050001;28;20041;-67
2023/05/30 11:52:44;;;;;;;6.80;3.08;;;;;;;;;;5035275;28;20049;-67
2023/05/30 11:55:10;;;;;;;5.68;2.40;;;;;;;;;;5051307;28;20049;-67
2023/05/30 11:57:37;;;;;;;5.15;2.60;;;;;;;;;;5051275;28;20065;-67
2023/05/30 12:00:11;;;;;;;4.40;2.10;;;;;;;;;;5051110;28;20061;-67
2023/05/30 12:02:38;;;;;;;5.90;2.72;;;;;;;;;;5050838;28;20053;-67
2023/05/30 12:05:05;;;;;;;4.30;2.25;;;;;;;;;;5051371;28;20392;-67
2023/05/30 12:07:32;;;;;;;4.43;2.72;;;;;;;;;;5050808;28;20052;-67
2023/05/30 12:09:58;;;;;;;7.10;2.80;;;;;;;;;;5051103;28;20045;-67
2023/05/30 12:12:26;;;;;;;5.63;2.38;;;;;;;;;;5051224;28;20118;-67
2023/05/30 12:14:56;;;;;;;5.03;2.58;;;;;;;;;;5052882;28;20140;-67
2023/05/30 12:17:25;;;;;;;5.05;2.70;;;;;;;;;;5054790;28;20110;-67
2023/05/30 12:19:55;;;;;;;5.55;2.60;;;;;;;;;;5042176;28;20132;-67
2023/05/30 12:22:23;;;;;;;8.68;2.72;;;;;;;;;;5053173;28;20049;-67
2023/05/30 12:24:49;;;;;;;4.55;2.10;;;;;;;;;;5054267;28;20589;-67
2023/05/30 12:27:20;;;;;;;5.35;2.47;;;;;;;;;;5054387;28;20060;-67
2023/05/30 12:29:48;;;;;;;4.75;2.10;;;;;;;;;;5054567;28;20052;-67
2023/05/30 12:32:25;;;;;;;4.95;2.40;;;;;;;;;;5052792;28;20061;-67
2023/05/30 12:34:56;;;;;;;6.45;2.30;;;;;;;;;;5025505;28;20405;-67
2023/05/30 12:37:23;;;;;;;3.58;2.15;;;;;;;;;;5033866;28;20123;-67
2023/05/30 12:39:53;;;;;;;6.82;2.25;;;;;;;;;;5029916;28;20049;-68
2023/05/30 12:42:29;;;;;;;6.07;2.35;;;;;;;;;;5033676;28;20049;-68
2023/05/30 12:44:56;;;;;;;5.50;2.15;;;;;;;;;;5033384;28;20049;-68
2023/05/30 12:47:23;;;;;;;4.10;1.75;;;;;;;;;;5033509;28;20056;-69
2023/05/30 12:49:50;;;;;;;6.18;2.03;;;;;;;;;;5033558;28;20049;-69
2023/05/30 12:52:21;;;;;;;5.90;2.38;;;;;;;;;;5032947;28;20057;-68
2023/05/30 12:54:48;;;;;;;3.78;1.90;;;;;;;;;;5031601;28;20107;-67
2023/05/30 12:57:16;;;;;;;5.60;2.40;;;;;;;;;;5048921;28;20048;-68
2023/05/30 12:59:43;;;;;;;4.40;2.08;;;;;;;;;;5053134;28;20053;-67
2023/05/30 13:02:10;;;;;;;5.32;2.13;;;;;;;;;;5036835;28;20099;-67
2023/05/30 13:04:38;;;;;;;5.07;1.88;;;;;;;;;;5020143;28;20141;-68
2023/05/30 13:07:09;;;;;;;3.92;2.03;;;;;;;;;;5032833;28;20049;-67
2023/05/30 13:09:36;;;;;;;5.93;2.30;;;;;;;;;;5033303;28;20049;-68
2023/05/30 13:12:03;;;;;;;4.65;2.20;;;;;;;;;;5034122;28;20103;-67
2023/05/30 13:14:31;;;;;;;3.85;1.90;;;;;;;;;;5052980;28;20048;-67
2023/05/30 13:16:57;;;;;;;4.28;2.28;;;;;;;;;;5036394;28;20080;-67
2023/05/30 13:19:24;;;;;;;6.28;2.40;;;;;;;;;;5032864;28;20057;-68
2023/05/30 13:21:50;;;;;;;6.18;2.30;;;;;;;;;;5032715;28;20130;-67
2023/05/30 13:24:17;;;;;;;3.38;2.33;;;;;;;;;;5048232;28;20056;-68
2023/05/30 13:26:43;;;;;;;4.93;1.75;;;;;;;;;;5052592;28;20079;-68
2023/05/30 13:29:09;;;;;;;3.35;2.08;;;;;;;;;;5052845;28;20041;-68
2023/05/30 13:31:36;;;;;;;6.32;2.30;;;;;;;;;;5052730;28;20047;-68
2023/05/30 13:34:03;;;;;;;5.28;2.17;;;;;;;;;;5052150;28;20053;-69
2023/05/30 13:36:29;;;;;;;5.60;2.20;;;;;;;;;;5052597;28;20055;-67
2023/05/30 13:38:56;;;;;;;4.80;2.83;;;;;;;;;;5046754;28;20100;-67
2023/05/30 13:41:25;;;;;;;4.82;2.88;;;;;;;;;;5046068;28;20542;-67
2023/05/30 13:43:52;;;;;;;4.00;2.33;;;;;;;;;;5051674;28;20045;-67
2023/05/30 13:46:19;;;;;;;5.85;2.53;;;;;;;;;;5051377;28;20433;-68
2023/05/30 13:48:45;;;;;;;4.47;2.35;;;;;;;;;;5051446;28;20576;-67
2023/05/30 13:51:12;;;;;;;3.97;2.25;;;;;;;;;;5053052;28;20044;-67
2023/05/30 13:53:39;;;;;;;4.35;2.78;;;;;;;;;;5052844;28;20488;-68
2023/05/30 13:56:25;;;;;;;5.85;2.78;;;;;;;;;;5052472;28;20063;-67
2023/05/30 13:58:52;;;;;;;4.28;2.35;;;;;;;;;;5052727;28;20045;-67
2023/05/30 14:01:19;;;;;;;4.75;2.60;;;;;;;;;;5052447;28;20570;-67
2023/05/30 14:03:47;;;;;;;3.67;2.50;;;;;;;;;;5052616;28;20055;-67
2023/05/30 14:06:13;;;;;;;5.57;2.70;;;;;;;;;;5052345;28;20416;-67
2023/05/30 14:08:40;;;;;;;5.35;2.33;;;;;;;;;;5052614;28;20049;-67
2023/05/30 14:11:07;;;;;;;5.03;2.50;;;;;;;;;;5052550;28;20048;-67
2023/05/30 14:13:34;;;;;;;5.28;2.58;;;;;;;;;;5052286;28;20057;-67
2023/05/30 14:16:00;;;;;;;5.13;2.40;;;;;;;;;;5052569;28;20045;-68
2023/05/30 14:18:27;;;;;;;6.03;2.50;;;;;;;;;;5052519;28;20049;-68
2023/05/30 14:20:53;;;;;;;2.92;2.20;;;;;;;;;;5052122;28;20512;-67
2023/05/30 14:23:20;;;;;;;4.18;2.53;;;;;;;;;;5052213;28;20053;-67
2023/05/30 14:25:46;;;;;;;4.90;2.45;;;;;;;;;;5052415;28;20400;-67
2023/05/30 14:28:13;;;;;;;3.75;1.92;;;;;;;;;;5052015;28;20512;-68
2023/05/30 14:30:39;;;;;;;4.53;2.05;;;;;;;;;;5052075;28;20098;-67
2023/05/30 14:33:06;;;;;;;6.20;2.67;;;;;;;;;;5051874;28;20053;-67
2023/05/30 14:35:32;;;;;;;4.80;2.75;;;;;;;;;;5051926;28;20045;-67
2023/05/30 14:37:59;;;;;;;4.45;3.13;;;;;;;;;;5051255;28;20091;-67
2023/05/30 14:40:25;;;;;;;7.13;2.72;;;;;;;;;;5051869;28;20053;-67
2023/05/30 14:42:52;;;;;;;6.70;2.88;;;;;;;;;;5051691;28;20049;-67
2023/05/30 14:45:18;;;;;;;7.25;3.22;;;;;;;;;;5052141;28;20110;-67